createdAt,value
2023-01-09T00:01:39.188Z,8.20
2023-01-09T00:04:07.478Z,9.75
2023-01-09T00:06:35.320Z,9.65
2023-01-09T00:09:03.034Z,8.98
2023-01-09T00:11:30.598Z,6.75
2023-01-09T00:13:59.524Z,6.82
2023-01-09T00:16:27.209Z,8.18
2023-01-09T00:18:54.969Z,8.50
2023-01-09T00:21:22.722Z,8.90
2023-01-09T00:23:50.678Z,9.05
2023-01-09T00:26:19.481Z,8.55
2023-01-09T00:28:47.408Z,9.15
2023-01-09T00:31:16.619Z,9.55
2023-01-09T00:33:48.034Z,9.30
2023-01-09T00:36:15.669Z,6.97
2023-01-09T00:38:43.150Z,8.20
2023-01-09T00:41:12.755Z,7.25
2023-01-09T00:43:42.908Z,7.80
2023-01-09T00:46:10.928Z,8.40
2023-01-09T00:48:42.219Z,7.25
2023-01-09T00:51:09.897Z,8.60
2023-01-09T00:53:38.468Z,8.68
2023-01-09T00:56:07.797Z,7.70
2023-01-09T00:58:35.978Z,7.65
2023-01-09T01:01:03.854Z,9.05
2023-01-09T01:03:31.500Z,7.88
2023-01-09T01:06:18.069Z,8.98
2023-01-09T01:08:45.737Z,8.68
2023-01-09T01:11:13.710Z,8.05
2023-01-09T01:13:41.941Z,8.48
2023-01-09T01:16:11.243Z,7.28
2023-01-09T01:18:39.024Z,6.80
2023-01-09T01:21:09.064Z,7.70
2023-01-09T01:23:37.438Z,8.30
2023-01-09T01:26:05.790Z,7.65
2023-01-09T01:28:33.330Z,8.13
2023-01-09T01:31:01.348Z,7.07
2023-01-09T01:33:28.904Z,6.10
2023-01-09T01:36:03.441Z,7.13
2023-01-09T01:38:33.149Z,6.88
2023-01-09T01:41:01.423Z,6.25
2023-01-09T01:43:29.293Z,6.25
2023-01-09T01:45:56.985Z,6.65
2023-01-09T01:48:27.631Z,7.97
2023-01-09T01:50:59.466Z,5.78
2023-01-09T01:53:28.010Z,8.32
2023-01-09T01:56:02.665Z,7.30
2023-01-09T01:58:31.250Z,6.00
2023-01-09T02:00:59.313Z,8.80
2023-01-09T02:03:28.426Z,7.07
2023-01-09T02:05:56.277Z,7.43
2023-01-09T02:08:23.845Z,6.22
2023-01-09T02:10:51.972Z,6.72
2023-01-09T02:13:21.350Z,5.60
2023-01-09T02:15:56.481Z,6.72
2023-01-09T02:18:29.219Z,6.75
2023-01-09T02:20:59.436Z,6.88
2023-01-09T02:23:53.110Z,6.47
2023-01-09T02:26:28.405Z,7.35
2023-01-09T02:29:14.708Z,6.32
2023-01-09T02:31:47.536Z,6.40
2023-01-09T02:34:17.036Z,6.07
2023-01-09T02:36:48.467Z,5.90
2023-01-09T02:39:19.229Z,6.00
2023-01-09T02:41:48.916Z,7.05
2023-01-09T02:44:17.722Z,5.55
2023-01-09T02:46:46.641Z,6.22
2023-01-09T02:49:16.680Z,7.80
2023-01-09T02:51:51.351Z,6.00
2023-01-09T02:54:23.051Z,5.95
2023-01-09T02:56:58.530Z,6.30
2023-01-09T02:59:30.212Z,5.70
2023-01-09T03:02:08.013Z,4.93
2023-01-09T03:04:43.378Z,4.88
2023-01-09T03:07:15.022Z,5.35
2023-01-09T03:09:43.835Z,6.35
2023-01-09T03:12:14.750Z,7.03
2023-01-09T03:14:46.783Z,5.45
2023-01-09T03:17:17.606Z,5.53
2023-01-09T03:19:46.387Z,6.30
2023-01-09T03:22:14.371Z,5.97
2023-01-09T03:24:41.836Z,6.13
2023-01-09T03:27:09.699Z,5.60
2023-01-09T03:29:38.416Z,4.75
2023-01-09T03:32:06.303Z,5.85
2023-01-09T03:34:35.678Z,4.53
2023-01-09T03:37:04.453Z,6.28
2023-01-09T03:39:32.104Z,5.95
2023-01-09T03:41:59.652Z,5.38
2023-01-09T03:44:27.118Z,4.85
2023-01-09T03:46:54.727Z,5.43
2023-01-09T03:49:22.650Z,7.22
2023-01-09T03:51:51.864Z,5.90
2023-01-09T03:54:19.359Z,5.60
2023-01-09T03:56:46.940Z,6.88
2023-01-09T03:59:14.791Z,5.68
2023-01-09T04:01:42.530Z,5.55
2023-01-09T04:04:10.126Z,5.13
2023-01-09T04:06:38.015Z,5.00
2023-01-09T04:09:07.038Z,4.78
2023-01-09T04:11:34.854Z,5.13
2023-01-09T04:14:02.393Z,5.88
2023-01-09T04:16:30.311Z,6.35
2023-01-09T04:18:57.909Z,6.55
2023-01-09T04:24:08.776Z,6.13
2023-01-09T04:26:36.544Z,6.88
2023-01-09T04:29:06.736Z,5.88
2023-01-09T04:31:34.506Z,5.95
2023-01-09T04:34:03.040Z,5.07
2023-01-09T04:36:31.971Z,6.65
2023-01-09T04:38:59.503Z,6.18
2023-01-09T04:41:45.977Z,7.15
2023-01-09T04:44:13.505Z,6.40
2023-01-09T04:46:41.114Z,6.60
2023-01-09T04:49:13.058Z,6.47
2023-01-09T04:51:40.730Z,6.15
2023-01-09T04:54:08.324Z,7.40
2023-01-09T04:56:37.809Z,6.82
2023-01-09T04:59:06.065Z,6.40
2023-01-09T05:01:33.804Z,4.97
2023-01-09T05:04:01.538Z,5.78
2023-01-09T05:06:29.180Z,5.72
2023-01-09T05:08:57.327Z,6.53
2023-01-09T05:11:25.536Z,7.03
2023-01-09T05:13:54.622Z,7.15
2023-01-09T05:16:26.684Z,7.10
2023-01-09T05:18:56.703Z,6.55
2023-01-09T05:21:24.522Z,7.80
2023-01-09T05:23:52.191Z,6.88
2023-01-09T05:26:23.318Z,6.03
2023-01-09T05:28:51.007Z,6.45
2023-01-09T05:31:20.650Z,7.88
2023-01-09T05:33:48.224Z,6.97
2023-01-09T05:36:17.294Z,6.63
2023-01-09T05:38:44.838Z,7.28
2023-01-09T05:41:14.257Z,7.75
2023-01-09T05:43:41.828Z,6.93
2023-01-09T05:46:09.983Z,8.20
2023-01-09T05:48:38.923Z,6.55
2023-01-09T05:51:06.967Z,8.05
2023-01-09T05:53:34.640Z,7.50
2023-01-09T05:56:02.475Z,6.35
2023-01-09T05:58:30.289Z,6.63
2023-01-09T06:00:59.289Z,7.25
2023-01-09T06:03:28.766Z,5.13
2023-01-09T06:05:58.237Z,6.88
2023-01-09T06:08:25.852Z,6.85
2023-01-09T06:10:53.872Z,7.68
2023-01-09T06:13:21.469Z,6.72
2023-01-09T06:15:49.613Z,6.63
2023-01-09T06:18:17.599Z,7.57
2023-01-09T06:20:45.521Z,6.38
2023-01-09T06:23:14.570Z,6.53
2023-01-09T06:25:42.342Z,7.25
2023-01-09T06:28:09.857Z,5.28
2023-01-09T06:30:37.388Z,7.22
2023-01-09T06:33:05.031Z,6.80
2023-01-09T06:35:32.517Z,8.02
2023-01-09T06:45:11.229Z,7.18
2023-01-09T06:47:39.311Z,6.80
2023-01-09T06:50:07.319Z,6.38
2023-01-09T06:52:35.104Z,6.80
2023-01-09T06:55:05.488Z,7.25
2023-01-09T06:57:33.348Z,5.95
2023-01-09T07:00:01.125Z,5.68
2023-01-09T07:02:30.092Z,7.93
2023-01-09T07:04:57.651Z,6.75
2023-01-09T07:07:25.394Z,7.18
2023-01-09T07:09:53.214Z,7.63
2023-01-09T07:12:20.831Z,7.90
2023-01-09T07:14:48.434Z,7.25
2023-01-09T07:17:16.349Z,8.52
2023-01-09T07:19:45.219Z,5.13
2023-01-09T07:22:14.359Z,7.80
2023-01-09T07:24:45.541Z,8.00
2023-01-09T07:27:13.265Z,7.75
2023-01-09T07:29:51.320Z,6.70
2023-01-09T07:32:18.848Z,6.88
2023-01-09T07:34:49.256Z,7.50
2023-01-09T07:37:20.774Z,7.47
2023-01-09T07:39:48.250Z,6.82
2023-01-09T07:42:16.075Z,7.97
2023-01-09T07:44:43.647Z,7.72
2023-01-09T07:47:11.485Z,7.10
2023-01-09T07:49:39.023Z,7.63
2023-01-09T07:52:07.925Z,7.55
2023-01-09T07:54:37.700Z,8.93
2023-01-09T07:57:05.292Z,8.00
2023-01-09T07:59:34.651Z,8.68
2023-01-09T08:02:05.571Z,8.45
2023-01-09T08:04:33.259Z,8.18
2023-01-09T08:07:01.441Z,9.98
2023-01-09T08:09:30.722Z,9.98
2023-01-09T08:11:58.610Z,7.80
2023-01-09T08:14:26.334Z,8.98
2023-01-09T08:16:53.957Z,7.70
2023-01-09T08:19:21.540Z,8.38
2023-01-09T08:21:49.191Z,9.05
2023-01-09T08:24:16.686Z,9.15
2023-01-09T08:26:45.633Z,8.85
2023-01-09T08:29:13.316Z,7.82
2023-01-09T08:31:41.559Z,8.15
2023-01-09T08:34:09.133Z,7.53
2023-01-09T08:36:37.245Z,6.78
2023-01-09T08:39:07.628Z,9.13
2023-01-09T08:41:54.856Z,7.68
2023-01-09T08:44:41.677Z,8.05
2023-01-09T08:47:09.500Z,7.30
2023-01-09T08:49:38.218Z,9.73
2023-01-09T08:52:07.220Z,8.43
2023-01-09T08:54:36.929Z,9.57
2023-01-09T08:57:06.620Z,7.50
2023-01-09T08:59:36.957Z,7.90
2023-01-09T09:02:04.573Z,9.70
2023-01-09T09:04:32.245Z,8.30
2023-01-09T09:06:59.775Z,9.48
2023-01-09T09:09:27.628Z,8.82
2023-01-09T09:11:55.185Z,10.68
2023-01-09T09:14:41.416Z,8.20
2023-01-09T09:17:10.641Z,9.32
2023-01-09T09:19:39.555Z,9.60
2023-01-09T09:22:07.219Z,9.68
2023-01-09T09:24:34.736Z,9.27
2023-01-09T09:27:03.185Z,10.10
2023-01-09T09:29:30.718Z,8.13
2023-01-09T09:32:00.810Z,9.20
2023-01-09T09:34:29.993Z,7.75
2023-01-09T09:36:59.037Z,9.25
2023-01-09T09:39:26.873Z,8.20
2023-01-09T09:42:31.015Z,9.02
2023-01-09T09:45:07.486Z,7.22
2023-01-09T09:47:44.187Z,8.85
2023-01-09T09:50:17.906Z,8.80
2023-01-09T09:52:50.902Z,9.93
2023-01-09T09:55:20.055Z,8.83
2023-01-09T09:57:48.696Z,10.07
2023-01-09T10:00:18.630Z,8.82
2023-01-09T10:02:50.501Z,9.50
2023-01-09T10:05:22.426Z,7.85
2023-01-09T10:07:51.111Z,8.98
2023-01-09T10:10:21.844Z,7.30
2023-01-09T10:12:53.890Z,8.65
2023-01-09T10:15:27.377Z,10.15
2023-01-09T10:18:00.952Z,7.63
2023-01-09T10:20:46.881Z,8.77
2023-01-09T10:23:27.223Z,9.60
2023-01-09T10:26:13.187Z,8.05
2023-01-09T10:28:54.940Z,7.70
2023-01-09T10:31:27.557Z,7.95
2023-01-09T10:34:10.895Z,6.22
2023-01-09T10:36:57.030Z,8.70
2023-01-09T10:39:32.899Z,8.45
2023-01-09T10:42:03.844Z,7.25
2023-01-09T10:44:39.305Z,8.50
2023-01-09T10:47:12.564Z,9.25
2023-01-09T10:49:43.424Z,7.72
2023-01-09T10:52:18.301Z,8.60
2023-01-09T10:54:50.894Z,7.55
2023-01-09T10:57:22.900Z,8.57
2023-01-09T11:00:00.468Z,8.15
2023-01-09T11:02:31.811Z,7.30
2023-01-09T11:05:05.266Z,5.68
2023-01-09T11:07:50.997Z,6.60
2023-01-09T11:10:19.432Z,7.57
2023-01-09T11:12:51.933Z,8.95
2023-01-09T11:18:33.516Z,8.50
2023-01-09T11:21:17.133Z,8.55
2023-01-09T11:24:00.588Z,9.52
2023-01-09T11:26:35.289Z,7.65
2023-01-09T11:29:11.880Z,6.00
2023-01-09T11:32:05.371Z,8.55
2023-01-09T11:34:48.845Z,7.53
2023-01-09T11:37:29.125Z,6.65
2023-01-09T11:40:02.453Z,6.38
2023-01-09T11:42:48.980Z,8.73
2023-01-09T11:45:18.630Z,8.77
2023-01-09T11:47:48.941Z,8.45
2023-01-09T11:50:39.529Z,11.45
2023-01-09T11:53:14.597Z,6.90
2023-01-09T11:55:57.260Z,7.80
2023-01-09T11:58:27.942Z,7.97
2023-01-09T12:01:00.407Z,8.45
2023-01-09T12:07:08.508Z,8.82
2023-01-09T12:09:40.052Z,9.50
2023-01-09T12:12:18.576Z,8.90
2023-01-09T12:14:59.411Z,9.38
2023-01-09T12:17:46.087Z,8.85
2023-01-09T12:20:34.324Z,11.57
2023-01-09T12:23:14.377Z,9.90
2023-01-09T12:25:47.685Z,8.50
2023-01-09T12:28:37.520Z,10.45
2023-01-09T12:31:11.643Z,7.97
2023-01-09T12:33:42.893Z,8.73
2023-01-09T12:36:15.401Z,7.40
2023-01-09T12:38:50.525Z,9.65
2023-01-09T12:41:33.020Z,9.75
2023-01-09T12:44:10.305Z,9.40
2023-01-09T12:46:42.759Z,9.50
2023-01-09T12:49:18.139Z,9.43
2023-01-09T12:51:48.150Z,7.82
2023-01-09T12:54:49.035Z,9.27
2023-01-09T12:57:37.023Z,8.50
2023-01-09T13:00:22.876Z,8.88
2023-01-09T13:03:12.633Z,8.48
2023-01-09T13:05:46.231Z,6.38
2023-01-09T13:08:19.993Z,9.13
2023-01-09T13:11:19.429Z,9.57
2023-01-09T13:13:56.742Z,9.95
2023-01-09T13:16:37.415Z,9.68
2023-01-09T13:19:09.585Z,9.65
2023-01-09T13:21:39.048Z,10.43
2023-01-09T13:24:10.148Z,7.75
2023-01-09T13:27:03.544Z,9.48
2023-01-09T13:33:02.781Z,6.95
2023-01-09T13:35:30.363Z,8.23
2023-01-09T13:38:21.132Z,8.77
2023-01-09T13:42:15.017Z,8.38
2023-01-09T13:44:58.475Z,7.93
2023-01-09T13:47:27.955Z,8.68
2023-01-09T13:50:31.018Z,8.52
2023-01-09T13:53:20.749Z,7.30
2023-01-09T13:56:03.499Z,8.95
2023-01-09T13:58:53.313Z,9.85
2023-01-09T14:01:40.185Z,9.32
2023-01-09T14:04:27.684Z,8.57
2023-01-09T14:07:10.118Z,10.20
2023-01-09T14:09:38.919Z,8.07
2023-01-09T14:12:12.001Z,9.23
2023-01-09T14:14:59.912Z,9.20
2023-01-09T14:17:37.745Z,10.48
2023-01-09T14:20:06.611Z,10.82
2023-01-09T14:22:45.484Z,9.23
2023-01-09T14:25:25.144Z,9.70
2023-01-09T14:28:11.658Z,10.13
2023-01-09T14:31:03.735Z,8.75
2023-01-09T14:33:32.899Z,8.10
2023-01-09T14:36:15.960Z,8.68
2023-01-09T14:38:45.165Z,8.57
2023-01-09T14:41:20.986Z,8.95
2023-01-09T14:43:54.940Z,9.95
2023-01-09T14:48:58.026Z,8.00
2023-01-09T14:51:26.814Z,9.43
2023-01-09T14:53:54.640Z,9.32
2023-01-09T14:56:27.105Z,10.05
2023-01-09T14:59:04.621Z,8.88
2023-01-09T15:01:34.013Z,9.55
2023-01-09T15:04:04.095Z,10.68
2023-01-09T15:06:34.301Z,9.40
2023-01-09T15:09:21.986Z,10.70
2023-01-09T15:11:49.847Z,11.18
2023-01-09T15:14:34.246Z,9.82
2023-01-09T15:17:05.159Z,8.48
2023-01-09T15:19:36.306Z,9.93
2023-01-09T15:22:05.708Z,10.45
2023-01-09T15:24:34.505Z,11.32
2023-01-09T15:27:03.061Z,10.48
2023-01-09T15:29:30.635Z,10.00
2023-01-09T15:32:03.928Z,9.77
2023-01-09T15:34:31.909Z,9.60
2023-01-09T15:37:02.172Z,11.32
2023-01-09T15:39:33.958Z,10.77
2023-01-09T15:42:18.777Z,8.75
2023-01-09T15:44:49.201Z,8.85
2023-01-09T15:47:18.613Z,10.00
2023-01-09T15:49:47.040Z,8.73
2023-01-09T15:52:16.954Z,8.88
2023-01-09T15:54:46.079Z,7.57
2023-01-09T15:57:35.430Z,10.02
2023-01-09T16:00:21.785Z,9.52
2023-01-09T16:03:06.607Z,8.60
2023-01-09T16:05:34.464Z,8.15
2023-01-09T16:08:03.428Z,8.20
2023-01-09T16:10:32.293Z,8.25
2023-01-09T16:13:00.422Z,9.90
2023-01-09T16:15:28.495Z,6.75
2023-01-09T16:18:06.317Z,7.32
2023-01-09T16:20:36.859Z,8.30
2023-01-09T16:23:20.622Z,7.70
2023-01-09T16:25:48.497Z,6.55
2023-01-09T16:28:21.087Z,7.25
2023-01-09T16:30:53.474Z,7.63
2023-01-09T16:33:22.090Z,6.80
2023-01-09T16:35:50.029Z,6.53
2023-01-09T16:38:19.297Z,6.95
2023-01-09T16:41:22.870Z,7.05
2023-01-09T16:43:49.726Z,5.70
2023-01-09T16:46:18.730Z,6.57
2023-01-09T16:48:46.447Z,6.90
2023-01-09T16:51:15.875Z,5.10
2023-01-09T16:53:45.175Z,6.63
2023-01-09T16:56:18.573Z,6.28
2023-01-09T16:58:46.451Z,6.38
2023-01-09T17:01:15.054Z,5.55
2023-01-09T17:03:43.975Z,5.32
2023-01-09T17:06:15.906Z,5.18
2023-01-09T17:08:45.666Z,5.78
2023-01-09T17:11:22.695Z,4.47
2023-01-09T17:13:57.403Z,5.70
2023-01-09T17:16:25.097Z,5.40
2023-01-09T17:18:54.164Z,5.07
2023-01-09T17:21:22.612Z,5.28
2023-01-09T17:24:12.233Z,4.53
2023-01-09T17:26:58.332Z,4.65
2023-01-09T17:29:26.043Z,5.10
2023-01-09T17:31:54.258Z,5.18
2023-01-09T17:34:23.207Z,4.88
2023-01-09T17:36:51.288Z,4.80
2023-01-09T17:39:20.567Z,5.05
2023-01-09T17:41:48.366Z,3.80
2023-01-09T17:44:16.185Z,3.65
2023-01-09T17:46:45.986Z,4.93
2023-01-09T17:49:29.104Z,4.00
2023-01-09T17:52:01.425Z,5.13
2023-01-09T17:54:31.762Z,4.55
2023-01-09T17:57:00.131Z,4.97
2023-01-09T17:59:31.590Z,3.75
2023-01-09T18:01:59.260Z,5.07
2023-01-09T18:04:27.272Z,4.50
2023-01-09T18:06:55.116Z,4.65
2023-01-09T18:09:23.011Z,4.28
2023-01-09T18:11:57.243Z,4.43
2023-01-09T18:14:25.449Z,4.55
2023-01-09T18:16:55.840Z,4.45
2023-01-09T18:19:23.507Z,4.65
2023-01-09T18:21:51.319Z,3.38
2023-01-09T18:24:18.911Z,4.55
2023-01-09T18:26:46.466Z,4.35
2023-01-09T18:29:15.375Z,4.80
2023-01-09T18:31:43.369Z,4.75
2023-01-09T18:34:11.047Z,4.10
2023-01-09T18:36:39.135Z,4.35
2023-01-09T18:39:07.161Z,4.03
2023-01-09T18:41:34.854Z,3.65
2023-01-09T18:44:03.096Z,3.10
2023-01-09T18:46:32.796Z,3.40
2023-01-09T18:49:01.819Z,3.25
2023-01-09T18:51:31.692Z,3.47
2023-01-09T18:53:59.821Z,3.35
2023-01-09T18:56:28.375Z,3.50
2023-01-09T18:58:57.273Z,3.47
2023-01-09T19:01:25.421Z,3.97
2023-01-09T19:03:55.388Z,3.45
2023-01-09T19:06:23.137Z,3.60
2023-01-09T19:08:50.762Z,4.63
2023-01-09T19:11:18.342Z,3.42
2023-01-09T19:13:45.993Z,2.97
2023-01-09T19:16:13.668Z,3.75
2023-01-09T19:18:42.480Z,3.40
2023-01-09T19:21:12.711Z,2.63
2023-01-09T19:23:43.914Z,2.92
2023-01-09T19:26:16.966Z,2.80
2023-01-09T19:28:46.667Z,3.23
2023-01-09T19:31:14.811Z,2.72
2023-01-09T19:33:42.606Z,2.35
2023-01-09T19:36:12.419Z,2.30
2023-01-09T19:38:40.351Z,2.88
2023-01-09T19:41:09.785Z,2.90
2023-01-09T19:43:39.389Z,3.28
2023-01-09T19:46:08.454Z,3.00
2023-01-09T19:48:36.164Z,2.70
2023-01-09T19:51:04.525Z,2.45
2023-01-09T19:53:33.866Z,3.67
2023-01-09T19:56:09.416Z,2.63
2023-01-09T19:58:36.974Z,2.63
2023-01-09T20:01:08.469Z,3.20
2023-01-09T20:03:37.477Z,2.95
2023-01-09T20:06:05.937Z,2.92
2023-01-09T20:08:34.788Z,3.13
2023-01-09T20:11:02.676Z,2.78
2023-01-09T20:13:30.681Z,2.92
2023-01-09T20:15:59.124Z,2.88
2023-01-09T20:18:26.886Z,2.72
2023-01-09T20:20:55.414Z,2.80
2023-01-09T20:23:23.182Z,2.78
2023-01-09T20:25:52.418Z,3.10
2023-01-09T20:28:20.133Z,3.08
2023-01-09T20:30:49.347Z,3.25
2023-01-09T20:33:17.268Z,3.47
2023-01-09T20:35:45.281Z,2.30
2023-01-09T20:38:12.927Z,3.42
2023-01-09T20:40:44.501Z,2.90
2023-01-09T20:43:13.585Z,2.80
2023-01-09T20:45:41.459Z,3.10
2023-01-09T20:48:18.005Z,2.92
2023-01-09T20:50:48.435Z,2.53
2023-01-09T20:53:16.011Z,2.50
2023-01-09T20:55:43.549Z,2.40
2023-01-09T20:58:11.095Z,2.30
2023-01-09T21:00:40.359Z,2.00
2023-01-09T21:03:07.935Z,2.58
2023-01-09T21:05:36.479Z,2.28
2023-01-09T21:08:04.240Z,1.90
2023-01-09T21:10:35.762Z,3.13
2023-01-09T21:13:04.601Z,1.80
2023-01-09T21:15:32.306Z,2.47
2023-01-09T21:18:02.477Z,2.42
2023-01-09T21:20:31.666Z,2.60
2023-01-09T21:22:59.301Z,1.77
2023-01-09T21:25:27.002Z,2.53
2023-01-09T21:27:54.552Z,2.15
2023-01-09T21:30:26.778Z,2.42
2023-01-09T21:32:56.102Z,2.38
2023-01-09T21:35:24.913Z,2.05
2023-01-09T21:37:52.971Z,2.60
2023-01-09T21:40:20.696Z,1.75
2023-01-09T21:43:12.854Z,2.40
2023-01-09T21:45:58.598Z,2.38
2023-01-09T21:48:26.135Z,2.05
2023-01-09T21:50:55.117Z,2.35
2023-01-09T21:53:23.530Z,2.40
2023-01-09T21:55:51.026Z,2.15
2023-01-09T21:58:18.602Z,2.90
2023-01-09T22:00:46.123Z,2.72
2023-01-09T22:03:18.590Z,1.88
2023-01-09T22:05:46.497Z,1.45
2023-01-09T22:08:15.487Z,2.33
2023-01-09T22:10:43.068Z,1.63
2023-01-09T22:13:17.859Z,2.42
2023-01-09T22:15:47.638Z,1.48
2023-01-09T22:18:18.010Z,1.60
2023-01-09T22:20:49.476Z,2.28
2023-01-09T22:23:18.406Z,1.58
2023-01-09T22:25:46.088Z,1.73
2023-01-09T22:28:17.837Z,2.03
2023-01-09T22:30:45.384Z,2.22
2023-01-09T22:33:18.991Z,2.35
2023-01-09T22:35:46.537Z,1.65
2023-01-09T22:38:14.023Z,2.65
2023-01-09T22:40:43.982Z,2.08
2023-01-09T22:43:16.114Z,1.60
2023-01-09T22:45:43.716Z,2.22
2023-01-09T22:48:11.257Z,2.05
2023-01-09T22:50:39.795Z,1.92
2023-01-09T22:53:07.302Z,2.55
2023-01-09T22:55:34.831Z,2.05
2023-01-09T22:58:03.785Z,2.35
2023-01-09T23:00:31.511Z,1.85
2023-01-09T23:03:00.336Z,1.92
2023-01-09T23:05:27.939Z,1.77
2023-01-09T23:07:55.442Z,1.88
2023-01-09T23:10:23.034Z,2.33
2023-01-09T23:12:50.510Z,2.67
2023-01-09T23:15:19.413Z,2.30
2023-01-09T23:17:47.621Z,3.03
2023-01-09T23:20:15.130Z,2.67
2023-01-09T23:22:42.686Z,2.15
2023-01-09T23:25:14.306Z,2.15
2023-01-09T23:27:43.159Z,2.83
2023-01-09T23:30:11.279Z,1.67
2023-01-09T23:32:40.085Z,2.45
2023-01-09T23:35:07.862Z,2.30
2023-01-09T23:37:35.365Z,2.17
2023-01-09T23:40:03.196Z,2.67
2023-01-09T23:42:48.571Z,2.97
2023-01-09T23:45:16.103Z,2.38
2023-01-09T23:47:44.955Z,1.77
2023-01-09T23:50:12.592Z,2.90
2023-01-09T23:52:40.194Z,2.10
2023-01-09T23:55:10.966Z,2.30
2023-01-09T23:57:38.920Z,2.60
